sensor_id;sensor_type;location;lat;lon;timestamp;P1;durP1;ratioP1;P2;durP2;ratioP2
50355;SDS011;36264;51.296;-0.602;2022-10-16T00:01:25;9.37;;;2.50;;
50355;SDS011;36264;51.296;-0.602;2022-10-16T00:03:52;6.75;;;2.00;;
50355;SDS011;36264;51.296;-0.602;2022-10-16T00:06:18;4.13;;;1.80;;
50355;SDS011;36264;51.296;-0.602;2022-10-16T00:08:45;5.65;;;1.88;;
50355;SDS011;36264;51.296;-0.602;2022-10-16T00:11:12;4.15;;;1.88;;
50355;SDS011;36264;51.296;-0.602;2022-10-16T00:13:44;4.18;;;1.50;;
50355;SDS011;36264;51.296;-0.602;2022-10-16T00:16:12;5.45;;;1.60;;
50355;SDS011;36264;51.296;-0.602;2022-10-16T00:18:38;4.15;;;1.58;;
50355;SDS011;36264;51.296;-0.602;2022-10-16T00:21:05;5.97;;;1.85;;
50355;SDS011;36264;51.296;-0.602;2022-10-16T00:23:33;4.57;;;1.75;;
50355;SDS011;36264;51.296;-0.602;2022-10-16T00:25:59;4.25;;;1.50;;
50355;SDS011;36264;51.296;-0.602;2022-10-16T00:28:27;4.65;;;1.65;;
50355;SDS011;36264;51.296;-0.602;2022-10-16T00:30:52;5.93;;;1.95;;
50355;SDS011;36264;51.296;-0.602;2022-10-16T00:33:19;5.30;;;2.00;;
50355;SDS011;36264;51.296;-0.602;2022-10-16T00:35:44;5.82;;;1.70;;
50355;SDS011;36264;51.296;-0.602;2022-10-16T00:38:10;6.45;;;2.20;;
50355;SDS011;36264;51.296;-0.602;2022-10-16T00:40:35;11.18;;;2.50;;
50355;SDS011;36264;51.296;-0.602;2022-10-16T00:43:01;8.32;;;2.30;;
50355;SDS011;36264;51.296;-0.602;2022-10-16T00:45:29;6.25;;;2.53;;
50355;SDS011;36264;51.296;-0.602;2022-10-16T00:47:55;3.30;;;1.20;;
50355;SDS011;36264;51.296;-0.602;2022-10-16T00:50:31;4.88;;;1.90;;
50355;SDS011;36264;51.296;-0.602;2022-10-16T00:52:59;5.57;;;1.80;;
50355;SDS011;36264;51.296;-0.602;2022-10-16T00:55:27;3.92;;;1.70;;
50355;SDS011;36264;51.296;-0.602;2022-10-16T00:57:55;6.47;;;2.45;;
50355;SDS011;36264;51.296;-0.602;2022-10-16T01:00:24;4.63;;;2.25;;
50355;SDS011;36264;51.296;-0.602;2022-10-16T01:02:54;5.75;;;2.00;;
50355;SDS011;36264;51.296;-0.602;2022-10-16T01:05:22;4.70;;;1.80;;
50355;SDS011;36264;51.296;-0.602;2022-10-16T01:15:29;4.45;;;2.35;;
50355;SDS011;36264;51.296;-0.602;2022-10-16T01:20:47;3.65;;;1.90;;
50355;SDS011;36264;51.296;-0.602;2022-10-16T01:28:34;6.03;;;1.90;;
50355;SDS011;36264;51.296;-0.602;2022-10-16T01:31:04;13.23;;;3.63;;
50355;SDS011;36264;51.296;-0.602;2022-10-16T01:33:34;11.07;;;2.45;;
50355;SDS011;36264;51.296;-0.602;2022-10-16T01:36:05;10.93;;;2.50;;
50355;SDS011;36264;51.296;-0.602;2022-10-16T01:38:37;12.50;;;2.20;;
50355;SDS011;36264;51.296;-0.602;2022-10-16T01:41:12;10.65;;;2.42;;
50355;SDS011;36264;51.296;-0.602;2022-10-16T01:43:45;5.70;;;1.70;;
50355;SDS011;36264;51.296;-0.602;2022-10-16T01:46:16;8.07;;;2.00;;
50355;SDS011;36264;51.296;-0.602;2022-10-16T01:48:44;8.85;;;2.47;;
50355;SDS011;36264;51.296;-0.602;2022-10-16T01:51:11;7.65;;;2.20;;
50355;SDS011;36264;51.296;-0.602;2022-10-16T01:53:38;6.75;;;1.90;;
50355;SDS011;36264;51.296;-0.602;2022-10-16T01:56:07;6.28;;;2.00;;
50355;SDS011;36264;51.296;-0.602;2022-10-16T01:58:35;8.05;;;2.10;;
50355;SDS011;36264;51.296;-0.602;2022-10-16T02:01:05;11.10;;;2.30;;
50355;SDS011;36264;51.296;-0.602;2022-10-16T02:03:36;6.05;;;1.60;;
50355;SDS011;36264;51.296;-0.602;2022-10-16T02:06:06;7.63;;;2.10;;
50355;SDS011;36264;51.296;-0.602;2022-10-16T02:08:32;7.47;;;1.77;;
50355;SDS011;36264;51.296;-0.602;2022-10-16T02:10:59;8.73;;;1.67;;
50355;SDS011;36264;51.296;-0.602;2022-10-16T02:13:28;8.77;;;2.20;;
50355;SDS011;36264;51.296;-0.602;2022-10-16T02:15:57;11.10;;;2.53;;
50355;SDS011;36264;51.296;-0.602;2022-10-16T02:18:23;4.18;;;2.30;;
50355;SDS011;36264;51.296;-0.602;2022-10-16T02:20:59;3.70;;;1.20;;
50355;SDS011;36264;51.296;-0.602;2022-10-16T02:23:40;8.13;;;1.67;;
50355;SDS011;36264;51.296;-0.602;2022-10-16T02:26:14;9.98;;;1.65;;
50355;SDS011;36264;51.296;-0.602;2022-10-16T02:28:45;5.32;;;1.65;;
50355;SDS011;36264;51.296;-0.602;2022-10-16T02:31:18;8.40;;;1.60;;
50355;SDS011;36264;51.296;-0.602;2022-10-16T02:33:50;5.05;;;1.70;;
50355;SDS011;36264;51.296;-0.602;2022-10-16T02:36:17;8.43;;;1.52;;
50355;SDS011;36264;51.296;-0.602;2022-10-16T02:38:43;10.20;;;1.90;;
50355;SDS011;36264;51.296;-0.602;2022-10-16T02:41:09;6.70;;;1.85;;
50355;SDS011;36264;51.296;-0.602;2022-10-16T02:43:35;5.90;;;1.48;;
50355;SDS011;36264;51.296;-0.602;2022-10-16T02:46:00;3.90;;;1.60;;
50355;SDS011;36264;51.296;-0.602;2022-10-16T02:48:26;3.83;;;1.40;;
50355;SDS011;36264;51.296;-0.602;2022-10-16T02:50:51;7.45;;;1.92;;
50355;SDS011;36264;51.296;-0.602;2022-10-16T02:53:17;4.57;;;1.60;;
50355;SDS011;36264;51.296;-0.602;2022-10-16T02:55:42;4.05;;;1.67;;
50355;SDS011;36264;51.296;-0.602;2022-10-16T02:58:07;5.80;;;1.60;;
50355;SDS011;36264;51.296;-0.602;2022-10-16T03:00:33;5.82;;;1.67;;
50355;SDS011;36264;51.296;-0.602;2022-10-16T03:02:58;4.60;;;1.27;;
50355;SDS011;36264;51.296;-0.602;2022-10-16T03:05:24;3.38;;;1.40;;
50355;SDS011;36264;51.296;-0.602;2022-10-16T03:07:49;9.35;;;1.90;;
50355;SDS011;36264;51.296;-0.602;2022-10-16T03:10:15;3.78;;;1.23;;
50355;SDS011;36264;51.296;-0.602;2022-10-16T03:12:40;8.25;;;1.70;;
50355;SDS011;36264;51.296;-0.602;2022-10-16T03:15:05;5.18;;;1.45;;
50355;SDS011;36264;51.296;-0.602;2022-10-16T03:17:32;2.28;;;1.38;;
50355;SDS011;36264;51.296;-0.602;2022-10-16T03:19:57;5.13;;;1.92;;
50355;SDS011;36264;51.296;-0.602;2022-10-16T03:22:23;6.55;;;1.80;;
50355;SDS011;36264;51.296;-0.602;2022-10-16T03:24:48;2.90;;;1.23;;
50355;SDS011;36264;51.296;-0.602;2022-10-16T03:27:13;5.22;;;1.50;;
50355;SDS011;36264;51.296;-0.602;2022-10-16T03:29:39;4.55;;;1.20;;
50355;SDS011;36264;51.296;-0.602;2022-10-16T03:32:04;3.80;;;1.40;;
50355;SDS011;36264;51.296;-0.602;2022-10-16T03:34:30;5.95;;;1.65;;
50355;SDS011;36264;51.296;-0.602;2022-10-16T03:36:55;8.13;;;2.05;;
50355;SDS011;36264;51.296;-0.602;2022-10-16T03:39:20;4.75;;;1.45;;
50355;SDS011;36264;51.296;-0.602;2022-10-16T03:41:46;7.18;;;1.55;;
50355;SDS011;36264;51.296;-0.602;2022-10-16T03:44:11;10.25;;;1.73;;
50355;SDS011;36264;51.296;-0.602;2022-10-16T03:46:37;4.40;;;1.42;;
50355;SDS011;36264;51.296;-0.602;2022-10-16T03:49:02;8.35;;;1.60;;
50355;SDS011;36264;51.296;-0.602;2022-10-16T03:51:28;4.25;;;1.42;;
50355;SDS011;36264;51.296;-0.602;2022-10-16T03:53:53;6.72;;;1.45;;
50355;SDS011;36264;51.296;-0.602;2022-10-16T03:56:19;5.22;;;1.98;;
50355;SDS011;36264;51.296;-0.602;2022-10-16T03:58:44;8.02;;;1.60;;
50355;SDS011;36264;51.296;-0.602;2022-10-16T04:01:09;7.88;;;1.95;;
50355;SDS011;36264;51.296;-0.602;2022-10-16T04:03:35;11.15;;;2.03;;
50355;SDS011;36264;51.296;-0.602;2022-10-16T04:06:00;9.20;;;2.05;;
50355;SDS011;36264;51.296;-0.602;2022-10-16T04:08:25;8.25;;;1.85;;
50355;SDS011;36264;51.296;-0.602;2022-10-16T04:10:51;6.75;;;2.20;;
50355;SDS011;36264;51.296;-0.602;2022-10-16T04:13:16;6.03;;;1.70;;
50355;SDS011;36264;51.296;-0.602;2022-10-16T04:15:42;8.90;;;2.25;;
50355;SDS011;36264;51.296;-0.602;2022-10-16T04:18:10;5.55;;;1.60;;
50355;SDS011;36264;51.296;-0.602;2022-10-16T04:20:35;7.00;;;1.73;;
50355;SDS011;36264;51.296;-0.602;2022-10-16T04:23:00;8.60;;;2.10;;
50355;SDS011;36264;51.296;-0.602;2022-10-16T04:25:26;6.50;;;1.83;;
50355;SDS011;36264;51.296;-0.602;2022-10-16T04:27:55;3.58;;;1.40;;
50355;SDS011;36264;51.296;-0.602;2022-10-16T04:30:21;7.53;;;1.50;;
50355;SDS011;36264;51.296;-0.602;2022-10-16T04:32:48;8.10;;;1.98;;
50355;SDS011;36264;51.296;-0.602;2022-10-16T04:35:15;5.85;;;1.30;;
50355;SDS011;36264;51.296;-0.602;2022-10-16T04:37:40;5.88;;;2.05;;
50355;SDS011;36264;51.296;-0.602;2022-10-16T04:40:06;8.38;;;1.98;;
50355;SDS011;36264;51.296;-0.602;2022-10-16T04:42:31;4.30;;;1.23;;
50355;SDS011;36264;51.296;-0.602;2022-10-16T04:44:57;10.40;;;2.20;;
50355;SDS011;36264;51.296;-0.602;2022-10-16T04:47:22;7.65;;;1.75;;
50355;SDS011;36264;51.296;-0.602;2022-10-16T04:49:48;5.38;;;1.80;;
50355;SDS011;36264;51.296;-0.602;2022-10-16T04:52:13;4.50;;;1.73;;
50355;SDS011;36264;51.296;-0.602;2022-10-16T04:54:38;5.18;;;1.55;;
50355;SDS011;36264;51.296;-0.602;2022-10-16T04:57:04;7.72;;;1.65;;
50355;SDS011;36264;51.296;-0.602;2022-10-16T04:59:29;7.65;;;2.00;;
50355;SDS011;36264;51.296;-0.602;2022-10-16T05:01:55;8.40;;;1.77;;
50355;SDS011;36264;51.296;-0.602;2022-10-16T05:04:20;5.13;;;1.88;;
50355;SDS011;36264;51.296;-0.602;2022-10-16T05:06:47;3.53;;;1.50;;
50355;SDS011;36264;51.296;-0.602;2022-10-16T05:09:12;6.95;;;1.60;;
50355;SDS011;36264;51.296;-0.602;2022-10-16T05:11:38;7.55;;;1.80;;
50355;SDS011;36264;51.296;-0.602;2022-10-16T05:14:03;9.43;;;2.00;;
50355;SDS011;36264;51.296;-0.602;2022-10-16T05:16:29;7.10;;;2.17;;
50355;SDS011;36264;51.296;-0.602;2022-10-16T05:18:55;7.93;;;1.80;;
50355;SDS011;36264;51.296;-0.602;2022-10-16T05:21:21;2.88;;;1.20;;
50355;SDS011;36264;51.296;-0.602;2022-10-16T05:23:47;10.65;;;1.90;;
50355;SDS011;36264;51.296;-0.602;2022-10-16T05:26:12;8.05;;;1.70;;
50355;SDS011;36264;51.296;-0.602;2022-10-16T05:28:37;5.00;;;1.42;;
50355;SDS011;36264;51.296;-0.602;2022-10-16T05:31:06;3.40;;;1.40;;
50355;SDS011;36264;51.296;-0.602;2022-10-16T05:33:33;5.03;;;1.55;;
50355;SDS011;36264;51.296;-0.602;2022-10-16T05:36:05;2.97;;;1.10;;
50355;SDS011;36264;51.296;-0.602;2022-10-16T05:38:32;4.30;;;1.33;;
50355;SDS011;36264;51.296;-0.602;2022-10-16T05:40:58;7.72;;;1.60;;
50355;SDS011;36264;51.296;-0.602;2022-10-16T05:43:24;4.15;;;1.25;;
50355;SDS011;36264;51.296;-0.602;2022-10-16T05:45:53;3.33;;;1.40;;
50355;SDS011;36264;51.296;-0.602;2022-10-16T05:48:29;3.67;;;1.45;;
50355;SDS011;36264;51.296;-0.602;2022-10-16T05:51:02;2.83;;;1.38;;
50355;SDS011;36264;51.296;-0.602;2022-10-16T05:53:31;9.80;;;1.92;;
50355;SDS011;36264;51.296;-0.602;2022-10-16T05:55:57;5.20;;;1.63;;
50355;SDS011;36264;51.296;-0.602;2022-10-16T05:58:23;5.03;;;1.90;;
50355;SDS011;36264;51.296;-0.602;2022-10-16T06:00:56;5.15;;;1.67;;
50355;SDS011;36264;51.296;-0.602;2022-10-16T06:03:25;6.28;;;1.90;;
50355;SDS011;36264;51.296;-0.602;2022-10-16T06:05:51;7.15;;;2.40;;
50355;SDS011;36264;51.296;-0.602;2022-10-16T06:08:17;5.43;;;1.80;;
50355;SDS011;36264;51.296;-0.602;2022-10-16T06:10:44;5.40;;;2.35;;
50355;SDS011;36264;51.296;-0.602;2022-10-16T06:13:10;4.55;;;1.80;;
50355;SDS011;36264;51.296;-0.602;2022-10-16T06:15:36;7.47;;;2.40;;
50355;SDS011;36264;51.296;-0.602;2022-10-16T06:18:04;6.13;;;2.15;;
50355;SDS011;36264;51.296;-0.602;2022-10-16T06:20:29;7.75;;;2.30;;
50355;SDS011;36264;51.296;-0.602;2022-10-16T06:22:55;6.03;;;2.20;;
50355;SDS011;36264;51.296;-0.602;2022-10-16T06:25:20;5.78;;;2.05;;
50355;SDS011;36264;51.296;-0.602;2022-10-16T06:27:45;14.15;;;3.35;;
50355;SDS011;36264;51.296;-0.602;2022-10-16T06:30:11;5.63;;;2.10;;
50355;SDS011;36264;51.296;-0.602;2022-10-16T06:32:36;6.43;;;2.30;;
50355;SDS011;36264;51.296;-0.602;2022-10-16T06:35:01;4.82;;;2.58;;
50355;SDS011;36264;51.296;-0.602;2022-10-16T06:37:27;7.07;;;2.05;;
50355;SDS011;36264;51.296;-0.602;2022-10-16T06:39:52;4.88;;;2.20;;
50355;SDS011;36264;51.296;-0.602;2022-10-16T06:42:18;5.43;;;2.30;;
50355;SDS011;36264;51.296;-0.602;2022-10-16T06:44:44;8.13;;;2.47;;
50355;SDS011;36264;51.296;-0.602;2022-10-16T06:47:10;10.00;;;2.65;;
50355;SDS011;36264;51.296;-0.602;2022-10-16T06:49:35;6.25;;;2.22;;
50355;SDS011;36264;51.296;-0.602;2022-10-16T06:52:01;4.75;;;2.15;;
50355;SDS011;36264;51.296;-0.602;2022-10-16T06:54:27;4.78;;;2.17;;
50355;SDS011;36264;51.296;-0.602;2022-10-16T06:56:53;7.28;;;2.20;;
50355;SDS011;36264;51.296;-0.602;2022-10-16T06:59:19;5.15;;;2.20;;
50355;SDS011;36264;51.296;-0.602;2022-10-16T07:01:45;6.00;;;2.75;;
50355;SDS011;36264;51.296;-0.602;2022-10-16T07:04:11;7.10;;;2.28;;
50355;SDS011;36264;51.296;-0.602;2022-10-16T07:06:36;4.18;;;2.00;;
50355;SDS011;36264;51.296;-0.602;2022-10-16T07:09:03;9.25;;;2.75;;
50355;SDS011;36264;51.296;-0.602;2022-10-16T07:11:30;5.88;;;2.30;;
50355;SDS011;36264;51.296;-0.602;2022-10-16T07:13:55;3.92;;;1.92;;
50355;SDS011;36264;51.296;-0.602;2022-10-16T07:16:22;5.07;;;1.90;;
50355;SDS011;36264;51.296;-0.602;2022-10-16T07:18:49;7.50;;;2.25;;
50355;SDS011;36264;51.296;-0.602;2022-10-16T07:21:17;6.60;;;2.38;;
50355;SDS011;36264;51.296;-0.602;2022-10-16T07:23:45;4.68;;;2.53;;
50355;SDS011;36264;51.296;-0.602;2022-10-16T07:26:15;6.50;;;2.10;;
50355;SDS011;36264;51.296;-0.602;2022-10-16T07:28:40;6.25;;;2.33;;
50355;SDS011;36264;51.296;-0.602;2022-10-16T07:31:09;5.30;;;2.13;;
50355;SDS011;36264;51.296;-0.602;2022-10-16T07:33:37;5.65;;;2.03;;
50355;SDS011;36264;51.296;-0.602;2022-10-16T07:36:03;4.68;;;2.05;;
50355;SDS011;36264;51.296;-0.602;2022-10-16T07:38:29;5.88;;;2.25;;
50355;SDS011;36264;51.296;-0.602;2022-10-16T07:40:55;7.70;;;2.33;;
50355;SDS011;36264;51.296;-0.602;2022-10-16T07:43:25;4.25;;;1.70;;
50355;SDS011;36264;51.296;-0.602;2022-10-16T07:45:51;4.90;;;1.85;;
50355;SDS011;36264;51.296;-0.602;2022-10-16T07:48:17;5.55;;;2.10;;
50355;SDS011;36264;51.296;-0.602;2022-10-16T07:50:43;5.50;;;2.10;;
50355;SDS011;36264;51.296;-0.602;2022-10-16T07:53:09;5.72;;;2.20;;
50355;SDS011;36264;51.296;-0.602;2022-10-16T07:55:35;4.00;;;1.90;;
50355;SDS011;36264;51.296;-0.602;2022-10-16T07:58:00;5.88;;;2.60;;
50355;SDS011;36264;51.296;-0.602;2022-10-16T08:00:26;4.75;;;2.03;;
50355;SDS011;36264;51.296;-0.602;2022-10-16T08:02:51;5.80;;;2.38;;
50355;SDS011;36264;51.296;-0.602;2022-10-16T08:05:17;7.00;;;2.30;;
50355;SDS011;36264;51.296;-0.602;2022-10-16T08:07:42;5.32;;;2.30;;
50355;SDS011;36264;51.296;-0.602;2022-10-16T08:10:12;7.47;;;2.10;;
50355;SDS011;36264;51.296;-0.602;2022-10-16T08:12:42;7.38;;;2.88;;
50355;SDS011;36264;51.296;-0.602;2022-10-16T08:15:07;4.90;;;1.70;;
50355;SDS011;36264;51.296;-0.602;2022-10-16T08:17:33;9.77;;;2.53;;
50355;SDS011;36264;51.296;-0.602;2022-10-16T08:19:59;6.07;;;2.10;;
50355;SDS011;36264;51.296;-0.602;2022-10-16T08:22:24;5.43;;;2.28;;
50355;SDS011;36264;51.296;-0.602;2022-10-16T08:24:49;4.72;;;2.03;;
50355;SDS011;36264;51.296;-0.602;2022-10-16T08:27:15;5.57;;;2.03;;
50355;SDS011;36264;51.296;-0.602;2022-10-16T08:29:40;5.97;;;2.20;;
50355;SDS011;36264;51.296;-0.602;2022-10-16T08:32:05;5.32;;;2.00;;
50355;SDS011;36264;51.296;-0.602;2022-10-16T08:34:31;5.22;;;1.92;;
50355;SDS011;36264;51.296;-0.602;2022-10-16T08:36:56;7.80;;;2.58;;
50355;SDS011;36264;51.296;-0.602;2022-10-16T08:39:22;5.13;;;1.85;;
50355;SDS011;36264;51.296;-0.602;2022-10-16T08:50:25;10.02;;;2.60;;
50355;SDS011;36264;51.296;-0.602;2022-10-16T08:52:55;9.38;;;2.00;;
50355;SDS011;36264;51.296;-0.602;2022-10-16T08:55:55;6.82;;;2.05;;
50355;SDS011;36264;51.296;-0.602;2022-10-16T08:58:18;6.78;;;2.03;;
50355;SDS011;36264;51.296;-0.602;2022-10-16T09:00:46;8.13;;;2.20;;
50355;SDS011;36264;51.296;-0.602;2022-10-16T09:05:52;12.30;;;3.15;;
50355;SDS011;36264;51.296;-0.602;2022-10-16T09:08:40;11.27;;;2.05;;
50355;SDS011;36264;51.296;-0.602;2022-10-16T09:20:18;7.32;;;1.95;;
50355;SDS011;36264;51.296;-0.602;2022-10-16T09:22:53;4.45;;;1.58;;
50355;SDS011;36264;51.296;-0.602;2022-10-16T09:25:32;10.07;;;1.90;;
50355;SDS011;36264;51.296;-0.602;2022-10-16T09:27:59;8.10;;;2.08;;
50355;SDS011;36264;51.296;-0.602;2022-10-16T09:30:26;6.80;;;1.70;;
50355;SDS011;36264;51.296;-0.602;2022-10-16T09:32:53;10.15;;;2.67;;
50355;SDS011;36264;51.296;-0.602;2022-10-16T09:35:20;11.20;;;3.40;;
50355;SDS011;36264;51.296;-0.602;2022-10-16T09:38:07;11.85;;;3.65;;
50355;SDS011;36264;51.296;-0.602;2022-10-16T09:40:34;8.48;;;2.70;;
50355;SDS011;36264;51.296;-0.602;2022-10-16T09:46:03;15.30;;;3.03;;
50355;SDS011;36264;51.296;-0.602;2022-10-16T09:51:03;6.70;;;2.20;;
50355;SDS011;36264;51.296;-0.602;2022-10-16T09:53:43;4.55;;;1.73;;
50355;SDS011;36264;51.296;-0.602;2022-10-16T09:56:11;7.18;;;2.10;;
50355;SDS011;36264;51.296;-0.602;2022-10-16T09:58:49;6.65;;;2.40;;
50355;SDS011;36264;51.296;-0.602;2022-10-16T10:01:16;5.80;;;2.20;;
50355;SDS011;36264;51.296;-0.602;2022-10-16T10:03:42;8.98;;;3.85;;
50355;SDS011;36264;51.296;-0.602;2022-10-16T10:08:57;11.38;;;4.47;;
50355;SDS011;36264;51.296;-0.602;2022-10-16T10:11:36;10.75;;;5.00;;
50355;SDS011;36264;51.296;-0.602;2022-10-16T10:14:16;9.45;;;4.00;;
50355;SDS011;36264;51.296;-0.602;2022-10-16T10:16:45;10.68;;;3.15;;
50355;SDS011;36264;51.296;-0.602;2022-10-16T10:19:17;8.43;;;3.20;;
50355;SDS011;36264;51.296;-0.602;2022-10-16T10:21:48;9.45;;;3.55;;
50355;SDS011;36264;51.296;-0.602;2022-10-16T10:24:15;6.95;;;2.95;;
50355;SDS011;36264;51.296;-0.602;2022-10-16T10:26:44;8.23;;;3.25;;
50355;SDS011;36264;51.296;-0.602;2022-10-16T10:29:51;6.13;;;2.90;;
50355;SDS011;36264;51.296;-0.602;2022-10-16T10:43:21;6.22;;;2.65;;
50355;SDS011;36264;51.296;-0.602;2022-10-16T10:46:01;5.18;;;2.13;;
50355;SDS011;36264;51.296;-0.602;2022-10-16T11:04:28;5.70;;;2.25;;
50355;SDS011;36264;51.296;-0.602;2022-10-16T11:06:59;3.97;;;1.83;;
50355;SDS011;36264;51.296;-0.602;2022-10-16T11:09:45;7.20;;;2.05;;
50355;SDS011;36264;51.296;-0.602;2022-10-16T11:17:22;5.55;;;2.00;;
50355;SDS011;36264;51.296;-0.602;2022-10-16T11:19:54;4.18;;;1.83;;
50355;SDS011;36264;51.296;-0.602;2022-10-16T11:24:53;6.40;;;2.13;;
50355;SDS011;36264;51.296;-0.602;2022-10-16T11:27:33;7.63;;;2.55;;
50355;SDS011;36264;51.296;-0.602;2022-10-16T11:30:04;5.03;;;1.80;;
50355;SDS011;36264;51.296;-0.602;2022-10-16T11:33:20;6.03;;;1.85;;
50355;SDS011;36264;51.296;-0.602;2022-10-16T11:35:49;5.50;;;1.83;;
50355;SDS011;36264;51.296;-0.602;2022-10-16T11:41:00;4.00;;;1.75;;
50355;SDS011;36264;51.296;-0.602;2022-10-16T11:43:34;10.07;;;2.28;;
50355;SDS011;36264;51.296;-0.602;2022-10-16T11:46:13;7.13;;;2.10;;
50355;SDS011;36264;51.296;-0.602;2022-10-16T11:48:45;7.10;;;2.20;;
50355;SDS011;36264;51.296;-0.602;2022-10-16T11:51:16;3.90;;;1.77;;
50355;SDS011;36264;51.296;-0.602;2022-10-16T11:56:36;4.40;;;1.80;;
50355;SDS011;36264;51.296;-0.602;2022-10-16T11:59:10;5.22;;;1.75;;
50355;SDS011;36264;51.296;-0.602;2022-10-16T12:01:47;3.92;;;1.60;;
50355;SDS011;36264;51.296;-0.602;2022-10-16T12:07:04;5.82;;;1.92;;
50355;SDS011;36264;51.296;-0.602;2022-10-16T12:09:34;3.55;;;1.50;;
50355;SDS011;36264;51.296;-0.602;2022-10-16T12:12:03;4.38;;;1.80;;
50355;SDS011;36264;51.296;-0.602;2022-10-16T12:17:37;5.15;;;1.85;;
50355;SDS011;36264;51.296;-0.602;2022-10-16T12:19:45;6.43;;;1.52;;
50355;SDS011;36264;51.296;-0.602;2022-10-16T12:22:26;4.78;;;1.73;;
50355;SDS011;36264;51.296;-0.602;2022-10-16T12:24:55;4.30;;;1.70;;
50355;SDS011;36264;51.296;-0.602;2022-10-16T12:27:30;5.65;;;1.95;;
50355;SDS011;36264;51.296;-0.602;2022-10-16T12:29:57;5.45;;;1.80;;
50355;SDS011;36264;51.296;-0.602;2022-10-16T12:32:36;8.57;;;2.10;;
50355;SDS011;36264;51.296;-0.602;2022-10-16T12:35:04;5.63;;;2.00;;
50355;SDS011;36264;51.296;-0.602;2022-10-16T12:37:42;4.32;;;2.13;;
50355;SDS011;36264;51.296;-0.602;2022-10-16T12:40:15;6.53;;;1.52;;
50355;SDS011;36264;51.296;-0.602;2022-10-16T12:42:50;6.40;;;1.92;;
50355;SDS011;36264;51.296;-0.602;2022-10-16T12:45:29;6.72;;;2.05;;
50355;SDS011;36264;51.296;-0.602;2022-10-16T12:47:56;7.18;;;2.00;;
50355;SDS011;36264;51.296;-0.602;2022-10-16T12:50:24;4.75;;;1.90;;
50355;SDS011;36264;51.296;-0.602;2022-10-16T12:53:01;5.00;;;1.80;;
50355;SDS011;36264;51.296;-0.602;2022-10-16T12:55:31;8.30;;;1.92;;
50355;SDS011;36264;51.296;-0.602;2022-10-16T13:06:25;10.52;;;2.42;;
50355;SDS011;36264;51.296;-0.602;2022-10-16T13:14:32;8.32;;;2.95;;
50355;SDS011;36264;51.296;-0.602;2022-10-16T13:26:15;10.23;;;5.70;;
50355;SDS011;36264;51.296;-0.602;2022-10-16T13:28:49;16.45;;;6.85;;
50355;SDS011;36264;51.296;-0.602;2022-10-16T13:31:16;15.10;;;7.03;;
50355;SDS011;36264;51.296;-0.602;2022-10-16T13:33:46;11.02;;;6.20;;
50355;SDS011;36264;51.296;-0.602;2022-10-16T13:36:19;12.32;;;6.07;;
50355;SDS011;36264;51.296;-0.602;2022-10-16T13:38:58;9.50;;;4.38;;
50355;SDS011;36264;51.296;-0.602;2022-10-16T13:41:28;9.85;;;4.30;;
50355;SDS011;36264;51.296;-0.602;2022-10-16T13:43:53;9.43;;;3.88;;
50355;SDS011;36264;51.296;-0.602;2022-10-16T13:46:22;13.23;;;5.82;;
50355;SDS011;36264;51.296;-0.602;2022-10-16T13:49:03;10.32;;;4.65;;
50355;SDS011;36264;51.296;-0.602;2022-10-16T13:51:30;12.70;;;5.55;;
50355;SDS011;36264;51.296;-0.602;2022-10-16T13:53:57;19.73;;;7.25;;
50355;SDS011;36264;51.296;-0.602;2022-10-16T13:56:25;11.88;;;6.35;;
50355;SDS011;36264;51.296;-0.602;2022-10-16T13:59:02;11.50;;;4.80;;
50355;SDS011;36264;51.296;-0.602;2022-10-16T14:01:46;30.80;;;14.18;;
50355;SDS011;36264;51.296;-0.602;2022-10-16T14:04:12;14.02;;;7.20;;
50355;SDS011;36264;51.296;-0.602;2022-10-16T14:06:43;18.55;;;10.13;;
50355;SDS011;36264;51.296;-0.602;2022-10-16T14:09:18;16.70;;;7.30;;
50355;SDS011;36264;51.296;-0.602;2022-10-16T14:12:01;16.27;;;6.30;;
50355;SDS011;36264;51.296;-0.602;2022-10-16T14:14:35;13.35;;;5.82;;
50355;SDS011;36264;51.296;-0.602;2022-10-16T14:17:15;11.82;;;6.03;;
50355;SDS011;36264;51.296;-0.602;2022-10-16T14:19:49;9.55;;;4.97;;
50355;SDS011;36264;51.296;-0.602;2022-10-16T14:22:28;10.40;;;4.90;;
50355;SDS011;36264;51.296;-0.602;2022-10-16T14:24:59;7.43;;;3.78;;
50355;SDS011;36264;51.296;-0.602;2022-10-16T14:27:29;9.30;;;4.88;;
50355;SDS011;36264;51.296;-0.602;2022-10-16T14:32:42;19.77;;;10.25;;
50355;SDS011;36264;51.296;-0.602;2022-10-16T14:35:22;14.93;;;5.68;;
50355;SDS011;36264;51.296;-0.602;2022-10-16T14:37:51;15.65;;;6.20;;
50355;SDS011;36264;51.296;-0.602;2022-10-16T14:40:18;12.52;;;5.63;;
50355;SDS011;36264;51.296;-0.602;2022-10-16T14:42:44;7.60;;;4.07;;
50355;SDS011;36264;51.296;-0.602;2022-10-16T14:45:10;10.13;;;5.57;;
50355;SDS011;36264;51.296;-0.602;2022-10-16T14:47:36;15.65;;;6.20;;
50355;SDS011;36264;51.296;-0.602;2022-10-16T14:50:14;10.48;;;4.25;;
50355;SDS011;36264;51.296;-0.602;2022-10-16T14:52:39;9.32;;;3.90;;
50355;SDS011;36264;51.296;-0.602;2022-10-16T14:55:05;10.18;;;4.97;;
50355;SDS011;36264;51.296;-0.602;2022-10-16T14:57:32;11.93;;;4.20;;
50355;SDS011;36264;51.296;-0.602;2022-10-16T15:00:02;9.45;;;4.20;;
50355;SDS011;36264;51.296;-0.602;2022-10-16T15:02:32;10.57;;;4.18;;
50355;SDS011;36264;51.296;-0.602;2022-10-16T15:05:07;9.95;;;2.90;;
50355;SDS011;36264;51.296;-0.602;2022-10-16T15:07:36;6.57;;;2.78;;
50355;SDS011;36264;51.296;-0.602;2022-10-16T15:10:01;8.27;;;2.90;;
50355;SDS011;36264;51.296;-0.602;2022-10-16T15:12:27;7.47;;;2.85;;
50355;SDS011;36264;51.296;-0.602;2022-10-16T15:14:52;5.53;;;2.17;;
50355;SDS011;36264;51.296;-0.602;2022-10-16T15:17:17;9.23;;;2.70;;
50355;SDS011;36264;51.296;-0.602;2022-10-16T15:19:43;5.72;;;2.22;;
50355;SDS011;36264;51.296;-0.602;2022-10-16T15:22:09;5.57;;;1.85;;
50355;SDS011;36264;51.296;-0.602;2022-10-16T15:24:36;4.63;;;2.08;;
50355;SDS011;36264;51.296;-0.602;2022-10-16T15:27:01;4.38;;;2.65;;
50355;SDS011;36264;51.296;-0.602;2022-10-16T15:29:26;4.55;;;1.90;;
50355;SDS011;36264;51.296;-0.602;2022-10-16T15:31:52;8.43;;;2.92;;
50355;SDS011;36264;51.296;-0.602;2022-10-16T15:34:17;6.55;;;2.40;;
50355;SDS011;36264;51.296;-0.602;2022-10-16T15:36:44;7.05;;;2.28;;
50355;SDS011;36264;51.296;-0.602;2022-10-16T15:41:42;5.25;;;2.30;;
50355;SDS011;36264;51.296;-0.602;2022-10-16T15:44:09;6.90;;;2.38;;
50355;SDS011;36264;51.296;-0.602;2022-10-16T15:46:35;6.32;;;2.95;;
50355;SDS011;36264;51.296;-0.602;2022-10-16T15:49:02;6.80;;;2.70;;
50355;SDS011;36264;51.296;-0.602;2022-10-16T15:51:28;4.07;;;2.15;;
50355;SDS011;36264;51.296;-0.602;2022-10-16T15:53:55;8.15;;;2.28;;
50355;SDS011;36264;51.296;-0.602;2022-10-16T15:56:22;8.15;;;3.10;;
50355;SDS011;36264;51.296;-0.602;2022-10-16T15:58:49;5.10;;;1.90;;
50355;SDS011;36264;51.296;-0.602;2022-10-16T16:01:14;7.05;;;3.20;;
50355;SDS011;36264;51.296;-0.602;2022-10-16T16:03:40;6.05;;;2.75;;
50355;SDS011;36264;51.296;-0.602;2022-10-16T16:06:06;5.85;;;2.72;;
50355;SDS011;36264;51.296;-0.602;2022-10-16T16:08:33;7.72;;;2.65;;
50355;SDS011;36264;51.296;-0.602;2022-10-16T16:11:00;7.35;;;2.83;;
50355;SDS011;36264;51.296;-0.602;2022-10-16T16:13:27;4.93;;;2.00;;
50355;SDS011;36264;51.296;-0.602;2022-10-16T16:15:52;5.63;;;2.22;;
50355;SDS011;36264;51.296;-0.602;2022-10-16T16:18:18;9.68;;;3.60;;
50355;SDS011;36264;51.296;-0.602;2022-10-16T16:20:43;6.00;;;3.00;;
50355;SDS011;36264;51.296;-0.602;2022-10-16T16:23:09;5.28;;;2.50;;
50355;SDS011;36264;51.296;-0.602;2022-10-16T16:25:34;5.80;;;2.60;;
50355;SDS011;36264;51.296;-0.602;2022-10-16T16:28:00;7.15;;;2.85;;
50355;SDS011;36264;51.296;-0.602;2022-10-16T16:30:25;7.82;;;2.45;;
50355;SDS011;36264;51.296;-0.602;2022-10-16T16:32:50;6.18;;;2.97;;
50355;SDS011;36264;51.296;-0.602;2022-10-16T16:35:16;5.60;;;2.30;;
50355;SDS011;36264;51.296;-0.602;2022-10-16T16:37:41;6.55;;;2.55;;
50355;SDS011;36264;51.296;-0.602;2022-10-16T16:40:07;6.50;;;2.20;;